sensor_id;sensor_type;location;lat;lon;timestamp;P1;durP1;ratioP1;P2;durP2;ratioP2
80677;SDS011;70042;52.494;5.502;2024-03-02T00:01:06;1.02;;;0.60;;
80677;SDS011;70042;52.494;5.502;2024-03-02T00:03:32;1.85;;;0.80;;
80677;SDS011;70042;52.494;5.502;2024-03-02T00:05:58;0.93;;;0.55;;
80677;SDS011;70042;52.494;5.502;2024-03-02T00:08:24;1.58;;;0.63;;
80677;SDS011;70042;52.494;5.502;2024-03-02T00:10:57;1.90;;;0.68;;
80677;SDS011;70042;52.494;5.502;2024-03-02T00:13:23;2.25;;;0.77;;
80677;SDS011;70042;52.494;5.502;2024-03-02T00:15:53;1.73;;;0.90;;
80677;SDS011;70042;52.494;5.502;2024-03-02T00:18:40;1.85;;;0.85;;
80677;SDS011;70042;52.494;5.502;2024-03-02T00:21:05;1.13;;;0.50;;
80677;SDS011;70042;52.494;5.502;2024-03-02T00:23:34;1.27;;;0.60;;
80677;SDS011;70042;52.494;5.502;2024-03-02T00:26:00;1.25;;;0.60;;
80677;SDS011;70042;52.494;5.502;2024-03-02T00:28:32;1.55;;;0.60;;
80677;SDS011;70042;52.494;5.502;2024-03-02T00:30:59;1.10;;;0.60;;
80677;SDS011;70042;52.494;5.502;2024-03-02T00:33:37;1.50;;;0.80;;
80677;SDS011;70042;52.494;5.502;2024-03-02T00:36:10;1.85;;;0.88;;
80677;SDS011;70042;52.494;5.502;2024-03-02T00:38:57;1.40;;;0.50;;
80677;SDS011;70042;52.494;5.502;2024-03-02T00:41:23;1.27;;;0.63;;
80677;SDS011;70042;52.494;5.502;2024-03-02T00:44:09;1.67;;;0.60;;
80677;SDS011;70042;52.494;5.502;2024-03-02T00:46:37;1.48;;;0.60;;
80677;SDS011;70042;52.494;5.502;2024-03-02T00:51:36;1.95;;;0.68;;
80677;SDS011;70042;52.494;5.502;2024-03-02T00:56:29;1.17;;;0.57;;
80677;SDS011;70042;52.494;5.502;2024-03-02T00:58:55;1.52;;;0.40;;
80677;SDS011;70042;52.494;5.502;2024-03-02T01:01:21;1.70;;;0.82;;
80677;SDS011;70042;52.494;5.502;2024-03-02T01:03:47;1.08;;;0.60;;
80677;SDS011;70042;52.494;5.502;2024-03-02T01:06:14;1.30;;;0.50;;
80677;SDS011;70042;52.494;5.502;2024-03-02T01:08:40;1.42;;;0.63;;
80677;SDS011;70042;52.494;5.502;2024-03-02T01:11:05;1.95;;;0.65;;
80677;SDS011;70042;52.494;5.502;2024-03-02T01:13:31;1.52;;;0.60;;
80677;SDS011;70042;52.494;5.502;2024-03-02T01:15:57;1.15;;;0.52;;
80677;SDS011;70042;52.494;5.502;2024-03-02T01:18:23;1.10;;;0.70;;
80677;SDS011;70042;52.494;5.502;2024-03-02T01:20:49;1.35;;;0.68;;
80677;SDS011;70042;52.494;5.502;2024-03-02T01:23:17;0.70;;;0.55;;
80677;SDS011;70042;52.494;5.502;2024-03-02T01:25:44;1.58;;;0.68;;
80677;SDS011;70042;52.494;5.502;2024-03-02T01:28:11;0.60;;;0.40;;
80677;SDS011;70042;52.494;5.502;2024-03-02T01:30:36;1.55;;;0.50;;
80677;SDS011;70042;52.494;5.502;2024-03-02T01:33:02;0.90;;;0.60;;
80677;SDS011;70042;52.494;5.502;2024-03-02T01:35:30;0.93;;;0.50;;
80677;SDS011;70042;52.494;5.502;2024-03-02T01:37:56;1.00;;;0.40;;
80677;SDS011;70042;52.494;5.502;2024-03-02T01:40:21;1.10;;;0.60;;
80677;SDS011;70042;52.494;5.502;2024-03-02T01:42:48;0.63;;;0.47;;
80677;SDS011;70042;52.494;5.502;2024-03-02T01:45:14;0.98;;;0.60;;
80677;SDS011;70042;52.494;5.502;2024-03-02T01:47:40;1.05;;;0.63;;
80677;SDS011;70042;52.494;5.502;2024-03-02T01:50:05;1.77;;;0.70;;
80677;SDS011;70042;52.494;5.502;2024-03-02T01:52:32;1.85;;;0.70;;
80677;SDS011;70042;52.494;5.502;2024-03-02T01:54:57;0.98;;;0.47;;
80677;SDS011;70042;52.494;5.502;2024-03-02T01:57:23;1.83;;;0.68;;
80677;SDS011;70042;52.494;5.502;2024-03-02T01:59:48;1.17;;;0.57;;
80677;SDS011;70042;52.494;5.502;2024-03-02T02:02:15;1.63;;;0.50;;
80677;SDS011;70042;52.494;5.502;2024-03-02T02:04:41;0.90;;;0.40;;
80677;SDS011;70042;52.494;5.502;2024-03-02T02:07:06;1.02;;;0.70;;
80677;SDS011;70042;52.494;5.502;2024-03-02T02:09:32;0.93;;;0.35;;
80677;SDS011;70042;52.494;5.502;2024-03-02T02:11:57;1.10;;;0.40;;
80677;SDS011;70042;52.494;5.502;2024-03-02T02:14:23;1.35;;;0.60;;
80677;SDS011;70042;52.494;5.502;2024-03-02T02:16:49;0.95;;;0.60;;
80677;SDS011;70042;52.494;5.502;2024-03-02T02:19:14;0.82;;;0.50;;
80677;SDS011;70042;52.494;5.502;2024-03-02T02:21:43;1.23;;;0.50;;
80677;SDS011;70042;52.494;5.502;2024-03-02T02:24:08;1.33;;;0.60;;
80677;SDS011;70042;52.494;5.502;2024-03-02T02:26:34;1.20;;;0.57;;
80677;SDS011;70042;52.494;5.502;2024-03-02T02:29:00;0.65;;;0.38;;
80677;SDS011;70042;52.494;5.502;2024-03-02T02:31:25;0.90;;;0.40;;
80677;SDS011;70042;52.494;5.502;2024-03-02T02:33:51;1.38;;;0.60;;
80677;SDS011;70042;52.494;5.502;2024-03-02T02:36:16;1.10;;;0.50;;
80677;SDS011;70042;52.494;5.502;2024-03-02T02:38:43;0.47;;;0.40;;
80677;SDS011;70042;52.494;5.502;2024-03-02T02:41:11;1.25;;;0.70;;
80677;SDS011;70042;52.494;5.502;2024-03-02T02:43:37;1.05;;;0.50;;
80677;SDS011;70042;52.494;5.502;2024-03-02T02:46:04;1.15;;;0.40;;
80677;SDS011;70042;52.494;5.502;2024-03-02T02:48:30;1.35;;;0.57;;
80677;SDS011;70042;52.494;5.502;2024-03-02T02:50:55;0.77;;;0.40;;
80677;SDS011;70042;52.494;5.502;2024-03-02T02:53:21;1.23;;;0.50;;
80677;SDS011;70042;52.494;5.502;2024-03-02T02:55:46;1.35;;;0.60;;
80677;SDS011;70042;52.494;5.502;2024-03-02T02:58:12;1.25;;;0.50;;
80677;SDS011;70042;52.494;5.502;2024-03-02T03:00:37;0.80;;;0.50;;
80677;SDS011;70042;52.494;5.502;2024-03-02T03:03:03;1.08;;;0.50;;
80677;SDS011;70042;52.494;5.502;2024-03-02T03:05:29;0.90;;;0.47;;
80677;SDS011;70042;52.494;5.502;2024-03-02T03:07:54;0.75;;;0.30;;
80677;SDS011;70042;52.494;5.502;2024-03-02T03:10:20;1.00;;;0.60;;
80677;SDS011;70042;52.494;5.502;2024-03-02T03:12:48;1.00;;;0.47;;
80677;SDS011;70042;52.494;5.502;2024-03-02T03:15:14;0.88;;;0.30;;
80677;SDS011;70042;52.494;5.502;2024-03-02T03:17:41;1.02;;;0.35;;
80677;SDS011;70042;52.494;5.502;2024-03-02T03:20:07;1.38;;;0.50;;
80677;SDS011;70042;52.494;5.502;2024-03-02T03:22:36;0.75;;;0.50;;
80677;SDS011;70042;52.494;5.502;2024-03-02T03:25:03;0.73;;;0.45;;
80677;SDS011;70042;52.494;5.502;2024-03-02T03:27:28;1.10;;;0.60;;
80677;SDS011;70042;52.494;5.502;2024-03-02T03:29:54;0.88;;;0.40;;
80677;SDS011;70042;52.494;5.502;2024-03-02T03:32:19;0.75;;;0.40;;
80677;SDS011;70042;52.494;5.502;2024-03-02T03:34:45;0.80;;;0.40;;
80677;SDS011;70042;52.494;5.502;2024-03-02T03:37:10;0.50;;;0.35;;
80677;SDS011;70042;52.494;5.502;2024-03-02T03:39:36;0.82;;;0.38;;
80677;SDS011;70042;52.494;5.502;2024-03-02T03:42:02;1.08;;;0.52;;
80677;SDS011;70042;52.494;5.502;2024-03-02T03:44:27;0.40;;;0.30;;
80677;SDS011;70042;52.494;5.502;2024-03-02T03:46:53;0.75;;;0.30;;
80677;SDS011;70042;52.494;5.502;2024-03-02T03:49:18;0.65;;;0.22;;
80677;SDS011;70042;52.494;5.502;2024-03-02T03:51:44;0.98;;;0.35;;
80677;SDS011;70042;52.494;5.502;2024-03-02T03:54:09;1.00;;;0.38;;
80677;SDS011;70042;52.494;5.502;2024-03-02T03:56:36;0.32;;;0.22;;
80677;SDS011;70042;52.494;5.502;2024-03-02T03:59:02;1.33;;;0.47;;
80677;SDS011;70042;52.494;5.502;2024-03-02T04:01:27;0.90;;;0.40;;
80677;SDS011;70042;52.494;5.502;2024-03-02T04:03:52;1.15;;;0.45;;
80677;SDS011;70042;52.494;5.502;2024-03-02T04:06:18;0.57;;;0.30;;
80677;SDS011;70042;52.494;5.502;2024-03-02T04:08:43;0.65;;;0.30;;
80677;SDS011;70042;52.494;5.502;2024-03-02T04:11:09;1.35;;;0.28;;
80677;SDS011;70042;52.494;5.502;2024-03-02T04:13:34;1.00;;;0.60;;
80677;SDS011;70042;52.494;5.502;2024-03-02T04:15:59;0.80;;;0.30;;
80677;SDS011;70042;52.494;5.502;2024-03-02T04:18:25;0.90;;;0.30;;
80677;SDS011;70042;52.494;5.502;2024-03-02T04:20:50;0.50;;;0.30;;
80677;SDS011;70042;52.494;5.502;2024-03-02T04:23:16;1.05;;;0.40;;
80677;SDS011;70042;52.494;5.502;2024-03-02T04:25:41;0.50;;;0.28;;
80677;SDS011;70042;52.494;5.502;2024-03-02T04:28:07;0.57;;;0.30;;
80677;SDS011;70042;52.494;5.502;2024-03-02T04:30:32;0.88;;;0.30;;
80677;SDS011;70042;52.494;5.502;2024-03-02T04:32:58;0.90;;;0.40;;
80677;SDS011;70042;52.494;5.502;2024-03-02T04:35:23;0.65;;;0.30;;
80677;SDS011;70042;52.494;5.502;2024-03-02T04:37:50;0.90;;;0.30;;
80677;SDS011;70042;52.494;5.502;2024-03-02T04:40:15;0.65;;;0.40;;
80677;SDS011;70042;52.494;5.502;2024-03-02T04:42:41;0.50;;;0.30;;
80677;SDS011;70042;52.494;5.502;2024-03-02T04:45:06;0.88;;;0.30;;
80677;SDS011;70042;52.494;5.502;2024-03-02T04:47:32;0.80;;;0.30;;
80677;SDS011;70042;52.494;5.502;2024-03-02T04:49:58;0.55;;;0.28;;
80677;SDS011;70042;52.494;5.502;2024-03-02T04:52:23;0.70;;;0.32;;
80677;SDS011;70042;52.494;5.502;2024-03-02T04:54:48;0.95;;;0.45;;
80677;SDS011;70042;52.494;5.502;2024-03-02T04:57:32;0.90;;;0.38;;
80677;SDS011;70042;52.494;5.502;2024-03-02T04:59:58;0.38;;;0.20;;
80677;SDS011;70042;52.494;5.502;2024-03-02T05:02:23;0.50;;;0.35;;
80677;SDS011;70042;52.494;5.502;2024-03-02T05:04:49;0.70;;;0.22;;
80677;SDS011;70042;52.494;5.502;2024-03-02T05:07:14;0.40;;;0.30;;
80677;SDS011;70042;52.494;5.502;2024-03-02T05:09:40;0.68;;;0.20;;
80677;SDS011;70042;52.494;5.502;2024-03-02T05:12:05;0.60;;;0.32;;
80677;SDS011;70042;52.494;5.502;2024-03-02T05:14:49;0.60;;;0.20;;
80677;SDS011;70042;52.494;5.502;2024-03-02T05:17:14;0.35;;;0.20;;
80677;SDS011;70042;52.494;5.502;2024-03-02T05:19:40;0.57;;;0.40;;
80677;SDS011;70042;52.494;5.502;2024-03-02T05:22:05;1.33;;;0.50;;
80677;SDS011;70042;52.494;5.502;2024-03-02T05:24:31;0.77;;;0.35;;
80677;SDS011;70042;52.494;5.502;2024-03-02T05:26:56;0.63;;;0.20;;
80677;SDS011;70042;52.494;5.502;2024-03-02T05:29:22;0.77;;;0.30;;
80677;SDS011;70042;52.494;5.502;2024-03-02T05:31:47;0.63;;;0.20;;
80677;SDS011;70042;52.494;5.502;2024-03-02T05:34:13;0.95;;;0.52;;
80677;SDS011;70042;52.494;5.502;2024-03-02T05:36:38;0.35;;;0.20;;
80677;SDS011;70042;52.494;5.502;2024-03-02T05:39:04;0.63;;;0.22;;
80677;SDS011;70042;52.494;5.502;2024-03-02T05:41:34;0.68;;;0.22;;
80677;SDS011;70042;52.494;5.502;2024-03-02T05:43:59;0.50;;;0.30;;
80677;SDS011;70042;52.494;5.502;2024-03-02T05:46:25;0.70;;;0.30;;
80677;SDS011;70042;52.494;5.502;2024-03-02T05:48:50;0.73;;;0.30;;
80677;SDS011;70042;52.494;5.502;2024-03-02T05:51:16;1.02;;;0.55;;
80677;SDS011;70042;52.494;5.502;2024-03-02T05:53:41;0.38;;;0.20;;
80677;SDS011;70042;52.494;5.502;2024-03-02T05:56:07;1.10;;;0.43;;
80677;SDS011;70042;52.494;5.502;2024-03-02T05:58:33;1.27;;;0.40;;
80677;SDS011;70042;52.494;5.502;2024-03-02T06:01:16;0.75;;;0.22;;
80677;SDS011;70042;52.494;5.502;2024-03-02T06:03:43;0.60;;;0.40;;
80677;SDS011;70042;52.494;5.502;2024-03-02T06:06:09;1.00;;;0.40;;
80677;SDS011;70042;52.494;5.502;2024-03-02T06:08:34;1.00;;;0.40;;
80677;SDS011;70042;52.494;5.502;2024-03-02T06:11:00;0.32;;;0.13;;
80677;SDS011;70042;52.494;5.502;2024-03-02T06:13:25;0.30;;;0.20;;
80677;SDS011;70042;52.494;5.502;2024-03-02T06:15:51;1.05;;;0.40;;
80677;SDS011;70042;52.494;5.502;2024-03-02T06:18:17;1.15;;;0.40;;
80677;SDS011;70042;52.494;5.502;2024-03-02T06:20:42;0.90;;;0.40;;
80677;SDS011;70042;52.494;5.502;2024-03-02T06:23:08;0.38;;;0.20;;
80677;SDS011;70042;52.494;5.502;2024-03-02T06:25:33;0.50;;;0.20;;
80677;SDS011;70042;52.494;5.502;2024-03-02T06:27:59;0.52;;;0.30;;
80677;SDS011;70042;52.494;5.502;2024-03-02T06:30:24;0.82;;;0.30;;
80677;SDS011;70042;52.494;5.502;2024-03-02T06:32:49;0.70;;;0.35;;
80677;SDS011;70042;52.494;5.502;2024-03-02T06:35:15;0.63;;;0.20;;
80677;SDS011;70042;52.494;5.502;2024-03-02T06:37:40;0.70;;;0.20;;
80677;SDS011;70042;52.494;5.502;2024-03-02T06:40:06;0.40;;;0.20;;
80677;SDS011;70042;52.494;5.502;2024-03-02T06:42:34;0.82;;;0.38;;
80677;SDS011;70042;52.494;5.502;2024-03-02T06:45:00;1.33;;;0.38;;
80677;SDS011;70042;52.494;5.502;2024-03-02T06:47:26;1.00;;;0.30;;
80677;SDS011;70042;52.494;5.502;2024-03-02T06:49:51;0.60;;;0.20;;
80677;SDS011;70042;52.494;5.502;2024-03-02T06:52:18;0.20;;;0.10;;
80677;SDS011;70042;52.494;5.502;2024-03-02T06:54:43;0.70;;;0.20;;
80677;SDS011;70042;52.494;5.502;2024-03-02T06:57:08;0.40;;;0.20;;
80677;SDS011;70042;52.494;5.502;2024-03-02T06:59:34;0.75;;;0.35;;
80677;SDS011;70042;52.494;5.502;2024-03-02T07:01:59;0.63;;;0.20;;
80677;SDS011;70042;52.494;5.502;2024-03-02T07:04:24;0.40;;;0.20;;
80677;SDS011;70042;52.494;5.502;2024-03-02T07:06:50;0.30;;;0.10;;
80677;SDS011;70042;52.494;5.502;2024-03-02T07:09:16;0.47;;;0.30;;
80677;SDS011;70042;52.494;5.502;2024-03-02T07:14:07;0.47;;;0.25;;
80677;SDS011;70042;52.494;5.502;2024-03-02T07:16:33;0.52;;;0.20;;
80677;SDS011;70042;52.494;5.502;2024-03-02T07:18:59;1.15;;;0.40;;
80677;SDS011;70042;52.494;5.502;2024-03-02T07:21:26;0.32;;;0.15;;
80677;SDS011;70042;52.494;5.502;2024-03-02T07:23:52;0.68;;;0.20;;
80677;SDS011;70042;52.494;5.502;2024-03-02T07:26:18;0.22;;;0.10;;
80677;SDS011;70042;52.494;5.502;2024-03-02T07:31:13;0.93;;;0.30;;
80677;SDS011;70042;52.494;5.502;2024-03-02T07:33:39;0.45;;;0.30;;
80677;SDS011;70042;52.494;5.502;2024-03-02T07:36:04;0.32;;;0.20;;
80677;SDS011;70042;52.494;5.502;2024-03-02T07:38:30;0.38;;;0.13;;
80677;SDS011;70042;52.494;5.502;2024-03-02T07:40:57;0.70;;;0.20;;
80677;SDS011;70042;52.494;5.502;2024-03-02T07:43:22;0.77;;;0.20;;
80677;SDS011;70042;52.494;5.502;2024-03-02T07:45:48;0.55;;;0.30;;
80677;SDS011;70042;52.494;5.502;2024-03-02T07:48:14;1.55;;;0.47;;
80677;SDS011;70042;52.494;5.502;2024-03-02T07:50:40;0.32;;;0.20;;
80677;SDS011;70042;52.494;5.502;2024-03-02T07:53:05;0.43;;;0.20;;
80677;SDS011;70042;52.494;5.502;2024-03-02T07:55:32;0.22;;;0.20;;
80677;SDS011;70042;52.494;5.502;2024-03-02T07:57:58;0.70;;;0.25;;
80677;SDS011;70042;52.494;5.502;2024-03-02T08:00:24;0.43;;;0.13;;
80677;SDS011;70042;52.494;5.502;2024-03-02T08:02:50;1.45;;;0.20;;
80677;SDS011;70042;52.494;5.502;2024-03-02T08:07:44;0.20;;;0.10;;
80677;SDS011;70042;52.494;5.502;2024-03-02T08:10:10;0.40;;;0.20;;
80677;SDS011;70042;52.494;5.502;2024-03-02T08:12:35;0.32;;;0.20;;
80677;SDS011;70042;52.494;5.502;2024-03-02T08:15:01;1.20;;;0.40;;
80677;SDS011;70042;52.494;5.502;2024-03-02T08:17:26;0.57;;;0.25;;
80677;SDS011;70042;52.494;5.502;2024-03-02T08:19:52;0.55;;;0.20;;
80677;SDS011;70042;52.494;5.502;2024-03-02T08:22:18;0.32;;;0.20;;
80677;SDS011;70042;52.494;5.502;2024-03-02T08:24:43;0.90;;;0.25;;
80677;SDS011;70042;52.494;5.502;2024-03-02T08:27:09;0.32;;;0.30;;
80677;SDS011;70042;52.494;5.502;2024-03-02T08:29:34;0.82;;;0.22;;
80677;SDS011;70042;52.494;5.502;2024-03-02T08:32:00;0.65;;;0.20;;
80677;SDS011;70042;52.494;5.502;2024-03-02T08:34:25;1.65;;;0.30;;
80677;SDS011;70042;52.494;5.502;2024-03-02T08:36:51;1.00;;;0.20;;
80677;SDS011;70042;52.494;5.502;2024-03-02T08:39:16;0.28;;;0.25;;
80677;SDS011;70042;52.494;5.502;2024-03-02T08:41:44;0.60;;;0.30;;
80677;SDS011;70042;52.494;5.502;2024-03-02T08:44:09;0.52;;;0.10;;
80677;SDS011;70042;52.494;5.502;2024-03-02T08:46:35;0.60;;;0.40;;
80677;SDS011;70042;52.494;5.502;2024-03-02T08:49:01;0.90;;;0.50;;
80677;SDS011;70042;52.494;5.502;2024-03-02T08:51:27;0.80;;;0.30;;
80677;SDS011;70042;52.494;5.502;2024-03-02T08:53:52;0.70;;;0.20;;
80677;SDS011;70042;52.494;5.502;2024-03-02T08:56:17;0.50;;;0.22;;
80677;SDS011;70042;52.494;5.502;2024-03-02T08:58:45;0.57;;;0.20;;
80677;SDS011;70042;52.494;5.502;2024-03-02T09:01:11;2.05;;;0.38;;
80677;SDS011;70042;52.494;5.502;2024-03-02T09:03:36;0.45;;;0.20;;
80677;SDS011;70042;52.494;5.502;2024-03-02T09:06:02;2.80;;;0.43;;
80677;SDS011;70042;52.494;5.502;2024-03-02T09:08:28;0.55;;;0.20;;
80677;SDS011;70042;52.494;5.502;2024-03-02T09:10:54;1.10;;;0.57;;
80677;SDS011;70042;52.494;5.502;2024-03-02T09:13:20;1.23;;;0.40;;
80677;SDS011;70042;52.494;5.502;2024-03-02T09:15:47;1.15;;;0.40;;
80677;SDS011;70042;52.494;5.502;2024-03-02T09:18:13;1.15;;;0.30;;
80677;SDS011;70042;52.494;5.502;2024-03-02T09:20:38;0.63;;;0.35;;
80677;SDS011;70042;52.494;5.502;2024-03-02T09:23:04;1.13;;;0.30;;
80677;SDS011;70042;52.494;5.502;2024-03-02T09:25:29;1.65;;;0.60;;
80677;SDS011;70042;52.494;5.502;2024-03-02T09:27:54;3.90;;;0.85;;
80677;SDS011;70042;52.494;5.502;2024-03-02T09:30:20;1.75;;;0.43;;
80677;SDS011;70042;52.494;5.502;2024-03-02T09:32:45;0.82;;;0.50;;
80677;SDS011;70042;52.494;5.502;2024-03-02T09:35:11;0.82;;;0.32;;
80677;SDS011;70042;52.494;5.502;2024-03-02T09:37:37;0.85;;;0.22;;
80677;SDS011;70042;52.494;5.502;2024-03-02T09:40:02;1.23;;;0.22;;
80677;SDS011;70042;52.494;5.502;2024-03-02T09:42:29;1.15;;;0.30;;
80677;SDS011;70042;52.494;5.502;2024-03-02T09:44:54;5.10;;;2.20;;
80677;SDS011;70042;52.494;5.502;2024-03-02T09:47:20;4.47;;;1.48;;
80677;SDS011;70042;52.494;5.502;2024-03-02T09:49:45;1.70;;;0.85;;
80677;SDS011;70042;52.494;5.502;2024-03-02T09:52:11;1.50;;;0.50;;
80677;SDS011;70042;52.494;5.502;2024-03-02T09:54:39;2.30;;;0.80;;
80677;SDS011;70042;52.494;5.502;2024-03-02T09:57:05;2.47;;;0.93;;
80677;SDS011;70042;52.494;5.502;2024-03-02T09:59:30;1.92;;;0.80;;
80677;SDS011;70042;52.494;5.502;2024-03-02T10:01:59;2.63;;;0.80;;
80677;SDS011;70042;52.494;5.502;2024-03-02T10:04:26;1.60;;;0.70;;
80677;SDS011;70042;52.494;5.502;2024-03-02T10:09:41;1.77;;;0.60;;
80677;SDS011;70042;52.494;5.502;2024-03-02T10:12:08;1.00;;;0.70;;
80677;SDS011;70042;52.494;5.502;2024-03-02T10:14:35;1.95;;;0.80;;
80677;SDS011;70042;52.494;5.502;2024-03-02T10:19:30;2.03;;;0.75;;
80677;SDS011;70042;52.494;5.502;2024-03-02T10:22:03;4.05;;;0.95;;
80677;SDS011;70042;52.494;5.502;2024-03-02T10:24:43;2.10;;;0.68;;
80677;SDS011;70042;52.494;5.502;2024-03-02T10:27:30;3.15;;;0.77;;
80677;SDS011;70042;52.494;5.502;2024-03-02T10:29:56;6.13;;;1.55;;
80677;SDS011;70042;52.494;5.502;2024-03-02T10:32:22;3.33;;;1.23;;
80677;SDS011;70042;52.494;5.502;2024-03-02T10:34:48;3.08;;;0.85;;
80677;SDS011;70042;52.494;5.502;2024-03-02T10:37:15;2.35;;;0.90;;
80677;SDS011;70042;52.494;5.502;2024-03-02T10:39:42;5.20;;;1.55;;
80677;SDS011;70042;52.494;5.502;2024-03-02T10:42:08;4.43;;;1.30;;
80677;SDS011;70042;52.494;5.502;2024-03-02T10:44:34;5.50;;;1.15;;
80677;SDS011;70042;52.494;5.502;2024-03-02T10:47:00;3.65;;;0.75;;
80677;SDS011;70042;52.494;5.502;2024-03-02T10:49:30;5.18;;;0.80;;
80677;SDS011;70042;52.494;5.502;2024-03-02T10:51:57;3.85;;;0.88;;
80677;SDS011;70042;52.494;5.502;2024-03-02T10:54:26;4.45;;;0.90;;
80677;SDS011;70042;52.494;5.502;2024-03-02T10:56:54;2.60;;;0.70;;
80677;SDS011;70042;52.494;5.502;2024-03-02T10:59:32;5.78;;;1.20;;
80677;SDS011;70042;52.494;5.502;2024-03-02T11:01:59;3.17;;;0.70;;
80677;SDS011;70042;52.494;5.502;2024-03-02T11:04:26;2.42;;;0.63;;
80677;SDS011;70042;52.494;5.502;2024-03-02T11:07:06;4.00;;;0.70;;
80677;SDS011;70042;52.494;5.502;2024-03-02T11:09:33;3.17;;;1.45;;
80677;SDS011;70042;52.494;5.502;2024-03-02T11:12:03;3.65;;;0.75;;
80677;SDS011;70042;52.494;5.502;2024-03-02T11:14:37;3.60;;;0.90;;
80677;SDS011;70042;52.494;5.502;2024-03-02T11:17:08;2.35;;;0.90;;
80677;SDS011;70042;52.494;5.502;2024-03-02T11:19:34;2.78;;;0.65;;
80677;SDS011;70042;52.494;5.502;2024-03-02T11:22:02;1.83;;;0.70;;
80677;SDS011;70042;52.494;5.502;2024-03-02T11:24:29;2.72;;;0.60;;
80677;SDS011;70042;52.494;5.502;2024-03-02T11:26:58;1.55;;;0.50;;
80677;SDS011;70042;52.494;5.502;2024-03-02T11:32:05;2.13;;;0.40;;
80677;SDS011;70042;52.494;5.502;2024-03-02T11:34:41;2.10;;;0.73;;
80677;SDS011;70042;52.494;5.502;2024-03-02T11:37:18;2.95;;;0.52;;
80677;SDS011;70042;52.494;5.502;2024-03-02T11:39:45;2.47;;;0.43;;
80677;SDS011;70042;52.494;5.502;2024-03-02T11:42:12;3.80;;;0.70;;
80677;SDS011;70042;52.494;5.502;2024-03-02T11:44:39;1.20;;;0.43;;
80677;SDS011;70042;52.494;5.502;2024-03-02T11:47:08;3.53;;;0.80;;
80677;SDS011;70042;52.494;5.502;2024-03-02T11:49:45;2.15;;;0.30;;
80677;SDS011;70042;52.494;5.502;2024-03-02T11:54:43;2.00;;;0.65;;
80677;SDS011;70042;52.494;5.502;2024-03-02T11:57:20;2.05;;;0.40;;
80677;SDS011;70042;52.494;5.502;2024-03-02T11:59:49;2.65;;;0.65;;
80677;SDS011;70042;52.494;5.502;2024-03-02T12:02:15;1.63;;;0.40;;
80677;SDS011;70042;52.494;5.502;2024-03-02T12:04:45;1.45;;;0.40;;
80677;SDS011;70042;52.494;5.502;2024-03-02T12:07:13;3.25;;;0.50;;
80677;SDS011;70042;52.494;5.502;2024-03-02T12:09:47;2.67;;;0.40;;
80677;SDS011;70042;52.494;5.502;2024-03-02T12:14:52;2.80;;;0.50;;
80677;SDS011;70042;52.494;5.502;2024-03-02T12:17:20;2.85;;;0.50;;
80677;SDS011;70042;52.494;5.502;2024-03-02T12:19:46;1.58;;;0.47;;
80677;SDS011;70042;52.494;5.502;2024-03-02T12:22:11;1.20;;;0.50;;
80677;SDS011;70042;52.494;5.502;2024-03-02T12:24:37;2.17;;;0.63;;
80677;SDS011;70042;52.494;5.502;2024-03-02T12:27:03;1.98;;;0.32;;
80677;SDS011;70042;52.494;5.502;2024-03-02T12:29:30;2.95;;;0.50;;
80677;SDS011;70042;52.494;5.502;2024-03-02T12:31:55;1.30;;;0.30;;
80677;SDS011;70042;52.494;5.502;2024-03-02T12:34:22;1.20;;;0.20;;
80677;SDS011;70042;52.494;5.502;2024-03-02T12:36:48;3.03;;;0.60;;
80677;SDS011;70042;52.494;5.502;2024-03-02T12:39:17;1.33;;;0.30;;
80677;SDS011;70042;52.494;5.502;2024-03-02T12:41:43;3.00;;;1.15;;
80677;SDS011;70042;52.494;5.502;2024-03-02T12:44:08;15.55;;;8.80;;
80677;SDS011;70042;52.494;5.502;2024-03-02T12:46:34;25.05;;;16.45;;
80677;SDS011;70042;52.494;5.502;2024-03-02T12:49:09;13.50;;;8.40;;
80677;SDS011;70042;52.494;5.502;2024-03-02T12:51:36;10.80;;;6.10;;
80677;SDS011;70042;52.494;5.502;2024-03-02T12:54:02;11.75;;;6.93;;
80677;SDS011;70042;52.494;5.502;2024-03-02T12:56:29;12.27;;;7.20;;
80677;SDS011;70042;52.494;5.502;2024-03-02T12:58:55;10.85;;;6.90;;
80677;SDS011;70042;52.494;5.502;2024-03-02T13:01:21;11.93;;;6.60;;
80677;SDS011;70042;52.494;5.502;2024-03-02T13:03:49;10.88;;;6.57;;
80677;SDS011;70042;52.494;5.502;2024-03-02T13:06:16;8.82;;;5.43;;
80677;SDS011;70042;52.494;5.502;2024-03-02T13:11:07;10.87;;;5.37;;
80677;SDS011;70042;52.494;5.502;2024-03-02T13:13:33;8.80;;;5.03;;
80677;SDS011;70042;52.494;5.502;2024-03-02T13:16:00;7.45;;;4.38;;
80677;SDS011;70042;52.494;5.502;2024-03-02T13:18:25;6.82;;;4.18;;
80677;SDS011;70042;52.494;5.502;2024-03-02T13:23:17;7.40;;;3.85;;
80677;SDS011;70042;52.494;5.502;2024-03-02T13:25:42;7.90;;;3.85;;
80677;SDS011;70042;52.494;5.502;2024-03-02T13:28:08;6.45;;;3.50;;
80677;SDS011;70042;52.494;5.502;2024-03-02T13:30:34;5.82;;;3.42;;
80677;SDS011;70042;52.494;5.502;2024-03-02T13:32:59;6.10;;;3.42;;
80677;SDS011;70042;52.494;5.502;2024-03-02T13:35:25;5.70;;;3.15;;
80677;SDS011;70042;52.494;5.502;2024-03-02T13:37:51;5.18;;;2.70;;
80677;SDS011;70042;52.494;5.502;2024-03-02T13:40:16;5.00;;;2.45;;
80677;SDS011;70042;52.494;5.502;2024-03-02T13:42:48;5.72;;;2.42;;
80677;SDS011;70042;52.494;5.502;2024-03-02T13:45:14;5.43;;;2.35;;
80677;SDS011;70042;52.494;5.502;2024-03-02T13:47:40;4.53;;;2.47;;
80677;SDS011;70042;52.494;5.502;2024-03-02T13:50:06;5.15;;;1.83;;
80677;SDS011;70042;52.494;5.502;2024-03-02T13:54:57;3.80;;;1.75;;
80677;SDS011;70042;52.494;5.502;2024-03-02T13:57:23;4.43;;;1.80;;
80677;SDS011;70042;52.494;5.502;2024-03-02T13:59:48;2.83;;;1.48;;
80677;SDS011;70042;52.494;5.502;2024-03-02T14:02:14;2.63;;;1.70;;
80677;SDS011;70042;52.494;5.502;2024-03-02T14:04:40;4.03;;;1.70;;
80677;SDS011;70042;52.494;5.502;2024-03-02T14:07:05;3.85;;;1.70;;
80677;SDS011;70042;52.494;5.502;2024-03-02T14:09:35;3.33;;;1.30;;
80677;SDS011;70042;52.494;5.502;2024-03-02T14:12:01;2.25;;;1.10;;
80677;SDS011;70042;52.494;5.502;2024-03-02T14:14:27;3.78;;;1.15;;
80677;SDS011;70042;52.494;5.502;2024-03-02T14:16:56;3.10;;;1.38;;
80677;SDS011;70042;52.494;5.502;2024-03-02T14:19:25;2.45;;;1.10;;
80677;SDS011;70042;52.494;5.502;2024-03-02T14:21:51;3.92;;;1.23;;
80677;SDS011;70042;52.494;5.502;2024-03-02T14:24:16;2.65;;;1.05;;
80677;SDS011;70042;52.494;5.502;2024-03-02T14:26:41;2.75;;;0.82;;
80677;SDS011;70042;52.494;5.502;2024-03-02T14:29:07;2.08;;;1.00;;
80677;SDS011;70042;52.494;5.502;2024-03-02T14:31:32;2.85;;;1.10;;
80677;SDS011;70042;52.494;5.502;2024-03-02T14:33:58;2.85;;;0.95;;
80677;SDS011;70042;52.494;5.502;2024-03-02T14:36:24;2.45;;;1.00;;
80677;SDS011;70042;52.494;5.502;2024-03-02T14:38:50;2.67;;;1.13;;
80677;SDS011;70042;52.494;5.502;2024-03-02T14:41:16;1.92;;;0.95;;
80677;SDS011;70042;52.494;5.502;2024-03-02T14:43:41;1.95;;;0.88;;
80677;SDS011;70042;52.494;5.502;2024-03-02T14:46:07;2.65;;;0.80;;
80677;SDS011;70042;52.494;5.502;2024-03-02T14:48:35;1.52;;;0.80;;
80677;SDS011;70042;52.494;5.502;2024-03-02T14:51:02;2.80;;;1.00;;
80677;SDS011;70042;52.494;5.502;2024-03-02T14:53:27;1.85;;;0.73;;
80677;SDS011;70042;52.494;5.502;2024-03-02T14:55:53;1.52;;;0.50;;
80677;SDS011;70042;52.494;5.502;2024-03-02T14:58:19;1.23;;;0.70;;
80677;SDS011;70042;52.494;5.502;2024-03-02T15:00:44;2.65;;;0.77;;
80677;SDS011;70042;52.494;5.502;2024-03-02T15:03:10;2.63;;;1.08;;
80677;SDS011;70042;52.494;5.502;2024-03-02T15:05:36;1.55;;;0.60;;
80677;SDS011;70042;52.494;5.502;2024-03-02T15:08:02;2.42;;;0.60;;
80677;SDS011;70042;52.494;5.502;2024-03-02T15:10:30;1.67;;;0.50;;
80677;SDS011;70042;52.494;5.502;2024-03-02T15:12:56;1.60;;;0.60;;
80677;SDS011;70042;52.494;5.502;2024-03-02T15:15:21;1.30;;;0.47;;
80677;SDS011;70042;52.494;5.502;2024-03-02T15:17:47;1.55;;;0.50;;